createdAt,value
2023-07-30T00:01:28.509Z,75.93
2023-07-30T00:03:00.946Z,76.05
2023-07-30T00:04:33.160Z,75.71
2023-07-30T00:06:05.373Z,75.62
2023-07-30T00:07:37.585Z,75.95
2023-07-30T00:09:09.726Z,76.04
2023-07-30T00:10:41.886Z,76.00
2023-07-30T00:12:14.039Z,76.02
2023-07-30T00:13:46.185Z,76.10
2023-07-30T00:15:18.430Z,76.27
2023-07-30T00:16:50.694Z,76.21
2023-07-30T00:18:22.975Z,76.15
2023-07-30T00:19:55.415Z,76.00
2023-07-30T00:21:27.656Z,75.97
2023-07-30T00:22:59.868Z,75.87
2023-07-30T00:24:32.404Z,76.15
2023-07-30T00:26:04.759Z,76.28
2023-07-30T00:27:36.999Z,76.34
2023-07-30T00:29:09.205Z,76.14
2023-07-30T00:30:41.562Z,76.56
2023-07-30T00:32:17.412Z,76.41
2023-07-30T00:33:49.599Z,76.23
2023-07-30T00:35:22.037Z,76.49
2023-07-30T00:36:54.219Z,76.56
2023-07-30T00:38:26.635Z,76.47
2023-07-30T00:39:58.949Z,76.75
2023-07-30T00:41:31.124Z,76.71
2023-07-30T00:43:03.295Z,76.68
2023-07-30T00:44:35.678Z,76.79
2023-07-30T00:46:07.955Z,76.63
2023-07-30T00:47:40.293Z,76.46
2023-07-30T00:49:12.498Z,76.77
2023-07-30T00:50:44.776Z,76.82
2023-07-30T00:52:20.862Z,76.67
2023-07-30T00:53:53.036Z,76.40
2023-07-30T00:55:25.164Z,76.55
2023-07-30T00:56:57.526Z,76.51
2023-07-30T00:58:29.723Z,76.22
2023-07-30T01:00:05.992Z,76.11
2023-07-30T01:01:40.998Z,76.36
2023-07-30T01:04:47.184Z,76.40
2023-07-30T01:06:22.169Z,76.30
2023-07-30T01:07:54.290Z,76.21
2023-07-30T01:09:26.927Z,76.72
2023-07-30T01:10:59.535Z,76.78
2023-07-30T01:12:33.248Z,76.85
2023-07-30T01:14:06.908Z,76.60
2023-07-30T01:15:39.753Z,76.58
2023-07-30T01:17:13.331Z,76.66
2023-07-30T01:18:45.485Z,76.62
2023-07-30T01:20:17.637Z,76.45
2023-07-30T01:21:49.773Z,76.77
2023-07-30T01:23:21.916Z,76.75
2023-07-30T01:24:54.328Z,77.01
2023-07-30T01:26:29.452Z,76.87
2023-07-30T01:28:03.885Z,77.13
2023-07-30T01:29:57.003Z,76.92
2023-07-30T01:31:32.113Z,77.17
2023-07-30T01:33:05.445Z,77.43
2023-07-30T01:34:37.567Z,77.00
2023-07-30T01:36:10.918Z,76.95
2023-07-30T01:37:42.858Z,76.83
2023-07-30T01:39:15.650Z,76.75
2023-07-30T01:40:47.834Z,76.79
2023-07-30T01:42:20.055Z,76.82
2023-07-30T01:43:52.183Z,76.92
2023-07-30T01:45:24.366Z,77.02
2023-07-30T01:46:56.495Z,76.88
2023-07-30T01:48:28.676Z,77.15
2023-07-30T01:50:01.233Z,77.01
2023-07-30T01:51:33.444Z,76.88
2023-07-30T01:53:05.776Z,77.12
2023-07-30T01:54:38.002Z,77.14
2023-07-30T01:56:10.082Z,77.16
2023-07-30T01:57:42.208Z,77.13
2023-07-30T01:59:14.322Z,77.28
2023-07-30T02:00:46.898Z,77.58
2023-07-30T02:02:19.308Z,77.28
2023-07-30T02:03:51.560Z,77.39
2023-07-30T02:05:23.824Z,77.70
2023-07-30T02:06:55.996Z,77.58
2023-07-30T02:08:28.743Z,77.57
2023-07-30T02:10:01.726Z,77.87
2023-07-30T02:11:33.827Z,77.79
2023-07-30T02:13:06.107Z,77.80
2023-07-30T02:14:38.346Z,77.79
2023-07-30T02:16:10.549Z,77.81
2023-07-30T02:17:42.790Z,77.39
2023-07-30T02:19:15.036Z,77.37
2023-07-30T02:20:47.244Z,77.48
2023-07-30T02:22:19.404Z,77.32
2023-07-30T02:23:51.535Z,77.44
2023-07-30T02:25:23.698Z,77.30
2023-07-30T02:26:55.926Z,77.36
2023-07-30T02:28:28.235Z,77.36
2023-07-30T02:30:00.388Z,77.52
2023-07-30T02:31:32.768Z,77.22
2023-07-30T02:33:05.092Z,77.27
2023-07-30T02:34:37.244Z,77.27
2023-07-30T02:36:09.350Z,77.30
2023-07-30T02:37:41.486Z,77.23
2023-07-30T02:39:13.638Z,77.34
2023-07-30T02:40:45.734Z,77.44
2023-07-30T02:42:17.827Z,77.48
2023-07-30T02:43:49.950Z,77.71
2023-07-30T02:45:22.135Z,78.09
2023-07-30T02:46:54.203Z,78.22
2023-07-30T02:48:26.301Z,77.63
2023-07-30T02:49:58.382Z,77.39
2023-07-30T02:51:30.480Z,77.56
2023-07-30T02:53:02.531Z,77.65
2023-07-30T02:54:34.666Z,77.77
2023-07-30T02:56:06.828Z,77.50
2023-07-30T02:57:38.987Z,77.22
2023-07-30T02:59:11.052Z,77.23
2023-07-30T03:00:43.274Z,77.60
2023-07-30T03:02:15.489Z,77.73
2023-07-30T03:03:47.728Z,78.15
2023-07-30T03:05:19.846Z,78.22
2023-07-30T03:06:52.176Z,77.96
2023-07-30T03:08:24.372Z,77.92
2023-07-30T03:09:56.545Z,78.18
2023-07-30T03:11:28.695Z,78.18
2023-07-30T03:13:00.898Z,78.21
2023-07-30T03:14:33.113Z,78.04
2023-07-30T03:16:06.053Z,77.92
2023-07-30T03:17:38.182Z,77.71
2023-07-30T03:19:10.325Z,77.80
2023-07-30T03:20:42.625Z,77.82
2023-07-30T03:22:14.862Z,77.81
2023-07-30T03:23:47.102Z,77.63
2023-07-30T03:25:19.380Z,77.63
2023-07-30T03:26:51.601Z,77.92
2023-07-30T03:28:23.929Z,77.60
2023-07-30T03:29:56.220Z,77.83
2023-07-30T03:31:30.008Z,77.68
2023-07-30T03:33:02.300Z,77.90
2023-07-30T03:34:34.647Z,77.84
2023-07-30T03:36:06.984Z,77.75
2023-07-30T03:37:39.358Z,77.74
2023-07-30T03:39:12.236Z,77.71
2023-07-30T03:40:44.718Z,78.32
2023-07-30T03:42:17.772Z,78.13
2023-07-30T03:43:50.001Z,77.97
2023-07-30T03:45:22.293Z,78.13
2023-07-30T03:46:54.374Z,78.10
2023-07-30T03:48:26.608Z,78.09
2023-07-30T03:49:58.760Z,78.34
2023-07-30T03:51:30.983Z,78.27
2023-07-30T03:53:03.226Z,78.21
2023-07-30T03:54:35.654Z,78.41
2023-07-30T03:56:08.008Z,78.46
2023-07-30T03:57:40.330Z,78.70
2023-07-30T03:59:12.570Z,78.82
2023-07-30T04:00:44.786Z,78.61
2023-07-30T04:02:17.423Z,78.38
2023-07-30T04:03:49.745Z,78.65
2023-07-30T04:05:22.122Z,78.53
2023-07-30T04:06:54.308Z,78.55
2023-07-30T04:08:26.508Z,78.16
2023-07-30T04:09:58.727Z,78.20
2023-07-30T04:11:30.980Z,78.30
2023-07-30T04:13:03.500Z,78.07
2023-07-30T04:14:35.637Z,78.24
2023-07-30T04:16:07.920Z,78.05
2023-07-30T04:17:40.511Z,78.08
2023-07-30T04:19:12.721Z,78.01
2023-07-30T04:20:44.936Z,78.01
2023-07-30T04:22:20.155Z,77.88
2023-07-30T04:23:52.516Z,77.96
2023-07-30T04:25:40.079Z,77.71
2023-07-30T04:38:01.075Z,77.15
2023-07-30T04:39:36.506Z,77.29
2023-07-30T04:41:08.965Z,77.05
2023-07-30T04:42:41.271Z,77.31
2023-07-30T04:44:13.527Z,77.47
2023-07-30T04:45:45.867Z,77.20
2023-07-30T04:47:18.115Z,77.45
2023-07-30T04:48:50.267Z,77.79
2023-07-30T04:50:22.581Z,77.83
2023-07-30T04:51:54.798Z,78.11
2023-07-30T04:53:27.460Z,77.81
2023-07-30T04:54:59.670Z,77.47
2023-07-30T04:56:31.918Z,77.93
2023-07-30T04:58:05.021Z,77.96
2023-07-30T04:59:37.366Z,77.41
2023-07-30T05:01:09.591Z,77.63
2023-07-30T05:02:41.813Z,77.97
2023-07-30T05:04:14.208Z,77.50
2023-07-30T05:05:46.424Z,77.37
2023-07-30T05:07:18.704Z,77.19
2023-07-30T05:08:54.048Z,76.86
2023-07-30T05:10:26.267Z,76.53
2023-07-30T05:11:58.544Z,75.56
2023-07-30T05:13:30.794Z,75.67
2023-07-30T05:15:03.088Z,73.77
2023-07-30T05:16:35.366Z,73.63
2023-07-30T05:18:07.765Z,74.70
2023-07-30T05:19:40.033Z,74.30
2023-07-30T05:21:12.315Z,73.72
2023-07-30T05:22:44.539Z,73.21
2023-07-30T05:24:16.808Z,73.08
2023-07-30T05:25:48.997Z,72.21
2023-07-30T05:27:21.950Z,71.83
2023-07-30T05:28:54.215Z,71.28
2023-07-30T05:30:26.402Z,71.39
2023-07-30T05:31:58.624Z,69.94
2023-07-30T05:33:30.896Z,69.97
2023-07-30T05:35:03.525Z,69.48
2023-07-30T05:36:35.689Z,69.33
2023-07-30T05:38:07.942Z,69.83
2023-07-30T05:39:40.282Z,69.76
2023-07-30T05:41:12.512Z,69.53
2023-07-30T05:42:44.739Z,69.84
2023-07-30T05:44:17.241Z,69.58
2023-07-30T05:45:49.602Z,69.19
2023-07-30T05:47:21.831Z,68.83
2023-07-30T05:48:54.042Z,68.48
2023-07-30T05:50:26.247Z,67.83
2023-07-30T05:51:58.526Z,67.28
2023-07-30T05:53:30.742Z,66.47
2023-07-30T05:55:02.931Z,66.62
2023-07-30T05:56:35.154Z,65.90
2023-07-30T05:58:07.462Z,66.21
2023-07-30T05:59:39.670Z,65.95
2023-07-30T06:01:13.112Z,65.79
2023-07-30T06:04:19.178Z,65.61
2023-07-30T06:05:51.503Z,65.61
2023-07-30T06:07:23.652Z,65.30
2023-07-30T06:08:56.346Z,64.77
2023-07-30T06:10:28.639Z,64.68
2023-07-30T06:12:01.150Z,64.50
2023-07-30T06:13:33.458Z,64.20
2023-07-30T06:15:08.020Z,63.85
2023-07-30T06:16:40.274Z,64.46
2023-07-30T06:18:12.601Z,64.56
2023-07-30T06:19:44.848Z,64.06
2023-07-30T06:21:17.141Z,64.54
2023-07-30T06:22:49.328Z,64.36
2023-07-30T06:24:22.075Z,64.43
2023-07-30T06:25:54.319Z,64.40
2023-07-30T06:27:26.588Z,63.85
2023-07-30T06:28:59.036Z,63.50
2023-07-30T06:30:31.270Z,62.93
2023-07-30T06:32:03.660Z,62.98
2023-07-30T06:33:35.949Z,63.13
2023-07-30T06:35:08.788Z,62.60
2023-07-30T06:36:41.158Z,62.65
2023-07-30T06:38:13.499Z,62.15
2023-07-30T06:39:45.649Z,62.59
2023-07-30T06:41:17.953Z,62.37
2023-07-30T06:42:50.213Z,62.01
2023-07-30T06:44:22.437Z,62.26
2023-07-30T06:45:56.467Z,62.16
2023-07-30T06:47:28.841Z,62.06
2023-07-30T06:49:01.149Z,61.45
2023-07-30T06:50:33.597Z,61.41
2023-07-30T06:52:06.272Z,60.46
2023-07-30T06:53:38.506Z,60.12
2023-07-30T06:55:10.851Z,60.22
2023-07-30T06:56:43.080Z,60.15
2023-07-30T06:58:15.675Z,60.02
2023-07-30T06:59:47.892Z,59.24
2023-07-30T07:01:20.408Z,59.26
2023-07-30T07:02:53.070Z,58.73
2023-07-30T07:04:25.818Z,57.77
2023-07-30T07:05:58.437Z,57.00
2023-07-30T07:07:32.248Z,58.13
2023-07-30T07:09:04.840Z,58.48
2023-07-30T07:10:37.122Z,57.91
2023-07-30T07:12:10.527Z,57.71
2023-07-30T07:13:42.763Z,57.03
2023-07-30T07:15:15.463Z,56.60
2023-07-30T07:16:47.848Z,55.15
2023-07-30T07:18:20.175Z,55.31
2023-07-30T07:19:52.494Z,54.49
2023-07-30T07:21:25.110Z,54.01
2023-07-30T07:22:57.326Z,54.09
2023-07-30T07:24:29.616Z,52.69
2023-07-30T07:26:01.948Z,54.04
2023-07-30T07:27:34.274Z,54.17
2023-07-30T07:29:06.599Z,54.13
2023-07-30T07:30:39.025Z,53.93
2023-07-30T07:32:11.889Z,52.66
2023-07-30T07:33:46.477Z,51.48
2023-07-30T07:35:21.856Z,51.62
2023-07-30T07:36:53.992Z,50.60
2023-07-30T07:38:26.228Z,50.31
2023-07-30T07:39:58.544Z,48.89
2023-07-30T07:41:30.760Z,49.84
2023-07-30T07:43:03.016Z,49.66
2023-07-30T07:44:35.138Z,49.54
2023-07-30T07:46:11.819Z,49.58
2023-07-30T07:47:44.491Z,48.96
2023-07-30T07:49:16.794Z,48.35
2023-07-30T07:50:49.058Z,48.70
2023-07-30T07:52:22.268Z,47.35
2023-07-30T07:53:54.573Z,47.96
2023-07-30T07:55:26.785Z,46.71
2023-07-30T07:56:59.036Z,47.20
2023-07-30T07:58:32.236Z,47.27
2023-07-30T08:00:06.751Z,46.05
2023-07-30T08:01:39.588Z,46.51
2023-07-30T08:03:12.120Z,46.17
2023-07-30T08:04:44.522Z,45.92
2023-07-30T08:06:16.864Z,45.93
2023-07-30T08:07:49.475Z,44.92
2023-07-30T08:09:21.788Z,44.05
2023-07-30T08:10:54.550Z,44.84
2023-07-30T08:12:26.888Z,44.85
2023-07-30T08:13:59.156Z,43.73
2023-07-30T08:15:31.793Z,44.34
2023-07-30T08:17:04.447Z,43.97
2023-07-30T08:18:36.742Z,43.57
2023-07-30T08:20:09.385Z,42.61
2023-07-30T08:21:41.877Z,43.83
2023-07-30T08:23:14.115Z,43.82
2023-07-30T08:24:46.585Z,43.10
2023-07-30T08:26:18.925Z,43.53
2023-07-30T08:27:51.298Z,42.63
2023-07-30T08:29:23.515Z,42.42
2023-07-30T08:31:01.730Z,41.67
2023-07-30T08:32:35.351Z,40.95
2023-07-30T08:34:08.986Z,41.41
2023-07-30T08:35:41.305Z,42.18
2023-07-30T08:37:13.849Z,40.26
2023-07-30T08:38:46.315Z,39.99
2023-07-30T08:40:18.860Z,40.59
2023-07-30T08:41:51.700Z,40.97
2023-07-30T08:43:24.470Z,39.12
2023-07-30T08:44:57.187Z,39.69
2023-07-30T08:46:29.741Z,39.95
2023-07-30T08:48:02.318Z,37.80
2023-07-30T08:49:34.664Z,37.87
2023-07-30T08:51:07.147Z,36.97
2023-07-30T08:52:39.415Z,37.03
2023-07-30T08:54:14.063Z,36.56
2023-07-30T08:55:46.952Z,36.58
2023-07-30T08:57:20.993Z,35.35
2023-07-30T08:58:55.651Z,35.58
2023-07-30T09:00:32.637Z,35.88
2023-07-30T09:02:06.277Z,35.24
2023-07-30T09:03:42.126Z,35.62
2023-07-30T09:05:14.741Z,36.74
2023-07-30T09:06:53.485Z,37.67
2023-07-30T09:08:26.543Z,37.88
2023-07-30T09:09:58.871Z,36.41
2023-07-30T09:11:31.392Z,36.67
2023-07-30T09:13:04.555Z,35.80
2023-07-30T09:14:36.852Z,36.00
2023-07-30T09:16:16.685Z,37.09
2023-07-30T09:17:49.127Z,36.56
2023-07-30T09:19:21.506Z,37.42
2023-07-30T09:20:54.081Z,36.34
2023-07-30T09:22:28.575Z,34.83
2023-07-30T09:24:07.308Z,34.44
2023-07-30T09:25:40.330Z,35.46
2023-07-30T09:27:12.921Z,34.74
2023-07-30T09:28:45.300Z,35.42
2023-07-30T09:30:23.817Z,34.47
2023-07-30T09:31:56.976Z,35.15
2023-07-30T09:33:29.199Z,34.72
2023-07-30T09:35:12.392Z,35.43
2023-07-30T09:36:45.974Z,34.23
2023-07-30T09:38:20.739Z,33.44
2023-07-30T09:39:53.078Z,33.88
2023-07-30T09:41:25.550Z,34.37
2023-07-30T09:42:59.006Z,34.37
2023-07-30T09:44:34.615Z,35.30
2023-07-30T09:46:08.537Z,34.11
2023-07-30T09:47:40.924Z,34.29
2023-07-30T09:49:13.329Z,33.13
2023-07-30T09:50:46.500Z,33.83
2023-07-30T09:52:19.081Z,34.10
2023-07-30T09:53:51.844Z,33.83
2023-07-30T09:55:24.392Z,34.58
2023-07-30T09:56:56.555Z,34.92
2023-07-30T09:58:29.022Z,34.02
2023-07-30T10:00:03.026Z,33.46
2023-07-30T10:01:49.277Z,33.59
2023-07-30T10:03:21.939Z,32.37
2023-07-30T10:04:55.533Z,31.86
2023-07-30T10:06:31.541Z,31.59
2023-07-30T10:08:10.337Z,32.30
2023-07-30T10:09:47.487Z,32.86
2023-07-30T10:11:21.443Z,33.43
2023-07-30T10:12:55.219Z,31.92
2023-07-30T10:14:28.045Z,31.98
2023-07-30T10:16:00.805Z,32.10
2023-07-30T10:17:34.881Z,30.72
2023-07-30T10:19:07.725Z,31.40
2023-07-30T10:20:41.026Z,31.03
2023-07-30T10:22:13.378Z,30.33
2023-07-30T10:24:03.362Z,30.83
2023-07-30T10:25:50.754Z,30.08
2023-07-30T10:27:27.863Z,30.87
2023-07-30T10:29:18.823Z,29.44
2023-07-30T10:30:58.036Z,29.00
2023-07-30T10:32:40.406Z,29.56
2023-07-30T10:34:12.852Z,30.00
2023-07-30T10:35:47.874Z,29.46
2023-07-30T10:37:20.830Z,29.04
2023-07-30T10:38:53.419Z,28.45
2023-07-30T10:40:25.646Z,28.06
2023-07-30T10:42:02.689Z,27.30
2023-07-30T10:43:38.674Z,27.95
2023-07-30T10:45:11.341Z,27.64
2023-07-30T10:46:43.967Z,28.04
2023-07-30T10:48:16.860Z,28.02
2023-07-30T10:49:50.217Z,28.16
2023-07-30T10:51:22.798Z,28.14
2023-07-30T10:52:55.273Z,28.57
2023-07-30T10:54:27.926Z,29.12
2023-07-30T10:56:03.990Z,28.89
2023-07-30T10:57:36.397Z,29.01
2023-07-30T10:59:09.934Z,27.45
2023-07-30T11:00:42.556Z,26.80
2023-07-30T11:02:16.997Z,27.01
2023-07-30T11:03:53.340Z,26.35
2023-07-30T11:05:27.098Z,26.64
2023-07-30T11:06:59.476Z,26.76
2023-07-30T11:08:44.766Z,27.36
2023-07-30T11:10:17.336Z,27.06
2023-07-30T11:11:52.484Z,26.45
2023-07-30T11:13:26.213Z,27.38
2023-07-30T11:15:03.342Z,27.44
2023-07-30T11:16:37.026Z,27.73
2023-07-30T11:18:09.922Z,27.03
2023-07-30T11:19:47.083Z,26.59
2023-07-30T11:21:20.304Z,27.49
2023-07-30T11:22:52.804Z,26.73
2023-07-30T11:24:35.871Z,26.46
2023-07-30T11:26:09.467Z,26.84
2023-07-30T11:27:51.988Z,29.35
2023-07-30T11:29:24.256Z,28.09
2023-07-30T11:31:00.264Z,28.23
2023-07-30T11:32:33.398Z,28.12
2023-07-30T11:34:06.091Z,27.56
2023-07-30T11:35:38.565Z,27.11
2023-07-30T11:37:11.220Z,27.11
2023-07-30T11:38:43.858Z,26.46
2023-07-30T11:40:16.409Z,27.29
2023-07-30T11:41:49.223Z,27.26
2023-07-30T11:43:24.722Z,26.30
2023-07-30T11:44:57.206Z,27.55
2023-07-30T11:46:32.137Z,27.20
2023-07-30T11:48:12.977Z,27.23
2023-07-30T11:49:57.140Z,26.19
2023-07-30T11:51:30.976Z,25.71
2023-07-30T11:53:03.704Z,26.07
2023-07-30T11:54:36.118Z,26.57
2023-07-30T11:56:09.869Z,27.30
2023-07-30T11:57:42.273Z,26.65
2023-07-30T11:59:15.145Z,25.99
2023-07-30T12:00:47.779Z,25.71
2023-07-30T12:02:22.120Z,26.24
2023-07-30T12:04:02.090Z,25.99
2023-07-30T12:05:36.480Z,25.93
2023-07-30T12:07:12.350Z,25.01
2023-07-30T12:08:44.726Z,25.85
2023-07-30T12:10:19.493Z,26.43
2023-07-30T12:11:58.569Z,25.55
2023-07-30T12:13:31.221Z,25.85
2023-07-30T12:15:03.835Z,25.11
2023-07-30T12:16:36.282Z,25.47
2023-07-30T12:18:08.975Z,26.33
2023-07-30T12:19:42.285Z,26.89
2023-07-30T12:21:14.712Z,28.24
2023-07-30T12:22:47.072Z,27.61
2023-07-30T12:24:19.467Z,28.22
2023-07-30T12:25:52.676Z,29.21
2023-07-30T12:27:25.035Z,28.84
2023-07-30T12:28:57.366Z,25.93
2023-07-30T12:30:29.794Z,26.71
2023-07-30T12:32:04.759Z,28.50
2023-07-30T12:33:37.686Z,28.74
2023-07-30T12:35:10.076Z,28.98
2023-07-30T12:36:42.472Z,29.37
2023-07-30T12:38:15.037Z,29.04
2023-07-30T12:39:47.474Z,28.96
2023-07-30T12:41:21.643Z,29.64
2023-07-30T12:42:54.614Z,29.78
2023-07-30T12:44:27.245Z,29.35
2023-07-30T12:45:59.624Z,28.30
2023-07-30T12:47:33.439Z,27.24
2023-07-30T12:49:06.297Z,28.83
2023-07-30T12:50:39.084Z,27.75
2023-07-30T12:52:11.388Z,27.40
2023-07-30T12:53:43.874Z,28.86
2023-07-30T12:55:16.421Z,29.27
2023-07-30T12:56:49.000Z,29.43
2023-07-30T12:58:21.308Z,30.20
2023-07-30T12:59:53.603Z,30.51
2023-07-30T13:01:26.174Z,30.72
2023-07-30T13:02:58.879Z,29.82
2023-07-30T13:04:31.716Z,27.23
2023-07-30T13:06:04.201Z,29.68
2023-07-30T13:07:36.633Z,29.54
2023-07-30T13:09:09.110Z,28.94
2023-07-30T13:10:41.594Z,28.43
2023-07-30T13:12:14.014Z,29.33
2023-07-30T13:13:46.597Z,29.13
2023-07-30T13:15:19.124Z,27.30
2023-07-30T13:16:51.757Z,27.61
2023-07-30T13:18:24.432Z,28.43
2023-07-30T13:19:59.825Z,29.86
2023-07-30T13:21:32.239Z,28.26
2023-07-30T13:23:04.641Z,27.17
2023-07-30T13:24:38.034Z,25.71
2023-07-30T13:26:10.511Z,28.08
2023-07-30T13:27:42.877Z,28.66
2023-07-30T13:29:15.386Z,27.33
2023-07-30T13:30:48.029Z,27.50
2023-07-30T13:32:20.657Z,26.97
2023-07-30T13:33:53.563Z,27.12
2023-07-30T13:35:25.620Z,27.00
2023-07-30T13:36:58.306Z,28.59
2023-07-30T13:38:30.948Z,29.04
2023-07-30T13:40:03.878Z,27.67
2023-07-30T13:41:41.635Z,28.12
2023-07-30T13:43:14.684Z,26.47
2023-07-30T13:44:47.152Z,29.57
2023-07-30T13:46:19.660Z,27.58
2023-07-30T13:47:52.884Z,27.85
2023-07-30T13:49:25.633Z,28.09
2023-07-30T13:50:59.225Z,29.39
2023-07-30T13:52:31.869Z,27.26
2023-07-30T13:54:05.057Z,27.68
2023-07-30T13:55:37.536Z,26.49
2023-07-30T13:57:10.860Z,26.90
2023-07-30T13:58:43.425Z,26.58
2023-07-30T14:00:16.701Z,27.06
2023-07-30T14:01:49.279Z,26.67
2023-07-30T14:03:21.601Z,26.49
2023-07-30T14:04:53.843Z,30.51
2023-07-30T14:06:26.417Z,30.99
2023-07-30T14:07:58.884Z,29.01
2023-07-30T14:09:34.803Z,29.70
2023-07-30T14:11:07.330Z,30.44
2023-07-30T14:12:39.879Z,29.59
2023-07-30T14:14:12.480Z,28.26
2023-07-30T14:15:44.716Z,27.82
2023-07-30T14:17:17.234Z,29.25
2023-07-30T14:18:49.709Z,28.50
2023-07-30T14:20:22.577Z,27.97
2023-07-30T14:21:54.911Z,28.45
2023-07-30T14:23:28.113Z,27.90
2023-07-30T14:25:00.605Z,26.87
2023-07-30T14:26:33.055Z,28.05
2023-07-30T14:28:06.350Z,32.97
2023-07-30T14:29:38.607Z,30.11
2023-07-30T14:31:11.208Z,28.23
2023-07-30T14:32:43.621Z,29.06
2023-07-30T14:34:15.908Z,27.78
2023-07-30T14:35:48.396Z,27.91
2023-07-30T14:37:20.946Z,26.89
2023-07-30T14:38:53.470Z,27.22
2023-07-30T14:40:25.951Z,27.70
2023-07-30T14:41:58.363Z,26.72
2023-07-30T14:43:31.014Z,27.57
2023-07-30T14:45:03.743Z,28.04
2023-07-30T14:46:36.340Z,28.40
2023-07-30T14:48:08.919Z,28.32
2023-07-30T14:49:41.871Z,27.80
2023-07-30T14:51:14.415Z,27.33
2023-07-30T14:52:47.420Z,28.23
2023-07-30T14:54:19.913Z,28.56
2023-07-30T14:55:52.228Z,28.51
2023-07-30T14:57:24.982Z,26.99
2023-07-30T14:58:57.281Z,27.59
2023-07-30T15:00:29.554Z,27.58
2023-07-30T15:02:02.200Z,28.94
2023-07-30T15:03:34.458Z,27.39
2023-07-30T15:05:07.558Z,27.38
2023-07-30T15:06:40.266Z,26.90
2023-07-30T15:08:13.080Z,27.50
2023-07-30T15:09:47.477Z,28.29
2023-07-30T15:11:19.831Z,27.19
2023-07-30T15:12:52.279Z,27.32
2023-07-30T15:14:24.666Z,27.91
2023-07-30T15:15:57.085Z,28.19
2023-07-30T15:17:29.440Z,28.31
2023-07-30T15:19:02.075Z,26.96
2023-07-30T15:20:34.508Z,26.01
2023-07-30T15:22:07.187Z,27.51
2023-07-30T15:23:39.619Z,28.73
2023-07-30T15:25:12.024Z,28.78
2023-07-30T15:26:44.522Z,28.69
2023-07-30T15:28:16.957Z,29.19
2023-07-30T15:29:49.462Z,29.13
2023-07-30T15:31:21.828Z,29.59
2023-07-30T15:32:54.250Z,33.47
2023-07-30T15:34:26.717Z,31.86
2023-07-30T15:35:59.237Z,32.18
2023-07-30T15:37:31.531Z,31.95
2023-07-30T15:39:04.347Z,32.33
2023-07-30T15:40:39.904Z,33.74
2023-07-30T15:42:12.624Z,33.03
2023-07-30T15:43:45.271Z,31.52
2023-07-30T15:45:19.163Z,29.24
2023-07-30T15:46:52.095Z,29.84
2023-07-30T15:48:24.722Z,31.22
2023-07-30T15:49:59.826Z,33.28
2023-07-30T15:51:32.576Z,35.24
2023-07-30T15:53:05.284Z,35.33
2023-07-30T15:54:38.952Z,34.64
2023-07-30T15:56:11.407Z,34.22
2023-07-30T15:57:44.213Z,30.61
2023-07-30T15:59:16.253Z,32.83
2023-07-30T16:00:49.166Z,32.63
2023-07-30T16:02:21.702Z,32.31
2023-07-30T16:03:54.127Z,32.37
2023-07-30T16:05:26.438Z,31.36
2023-07-30T16:07:01.855Z,29.70
2023-07-30T16:08:37.825Z,31.58
2023-07-30T16:10:10.623Z,35.26
2023-07-30T16:11:43.028Z,34.94
2023-07-30T16:13:15.458Z,34.97
2023-07-30T16:14:47.776Z,33.35
2023-07-30T16:16:20.067Z,35.05
2023-07-30T16:17:52.363Z,35.61
2023-07-30T16:19:24.668Z,36.12
2023-07-30T16:21:06.640Z,37.92
2023-07-30T16:22:38.996Z,39.09
2023-07-30T16:24:11.633Z,38.98
2023-07-30T16:25:44.071Z,38.77
2023-07-30T16:27:19.563Z,39.12
2023-07-30T16:28:52.040Z,39.70
2023-07-30T16:30:26.798Z,39.10
2023-07-30T16:32:00.817Z,40.71
2023-07-30T16:33:32.809Z,40.76
2023-07-30T16:35:05.309Z,39.41
2023-07-30T16:36:37.932Z,39.72
2023-07-30T16:38:11.267Z,40.73
2023-07-30T16:39:43.541Z,41.62
2023-07-30T16:41:15.972Z,41.57
2023-07-30T16:42:49.459Z,42.49
2023-07-30T16:44:24.307Z,42.76
2023-07-30T16:46:01.475Z,43.82
2023-07-30T16:47:34.255Z,42.89
2023-07-30T16:49:06.547Z,43.34
2023-07-30T16:50:39.731Z,43.40
2023-07-30T16:52:11.971Z,43.47
2023-07-30T16:53:44.236Z,44.13
2023-07-30T16:55:16.655Z,44.82
2023-07-30T16:56:49.114Z,45.19
2023-07-30T16:58:21.470Z,45.61
2023-07-30T16:59:53.677Z,45.25
2023-07-30T17:01:26.450Z,46.79
2023-07-30T17:02:58.794Z,47.07
2023-07-30T17:04:31.338Z,47.43
2023-07-30T17:06:03.927Z,47.88
2023-07-30T17:07:36.154Z,47.52
2023-07-30T17:09:08.644Z,48.02
2023-07-30T17:10:41.843Z,48.83
2023-07-30T17:12:14.029Z,49.26
2023-07-30T17:13:46.354Z,49.09
2023-07-30T17:15:18.661Z,48.90
2023-07-30T17:16:51.095Z,49.19
2023-07-30T17:18:23.310Z,50.44
2023-07-30T17:19:57.199Z,50.69
2023-07-30T17:21:30.817Z,50.32
2023-07-30T17:23:03.184Z,49.97
2023-07-30T17:24:35.758Z,50.03
2023-07-30T17:26:08.482Z,50.40
2023-07-30T17:27:40.813Z,52.13
2023-07-30T17:29:13.145Z,52.18
2023-07-30T17:30:45.454Z,51.15
2023-07-30T17:32:18.128Z,50.98
2023-07-30T17:33:50.670Z,50.82
2023-07-30T17:35:23.011Z,50.84
2023-07-30T17:36:55.298Z,52.16
2023-07-30T17:38:28.655Z,52.54
2023-07-30T17:41:32.311Z,53.10
2023-07-30T17:43:05.807Z,52.65
2023-07-30T17:44:38.344Z,53.29
2023-07-30T17:46:10.695Z,53.04
2023-07-30T17:47:43.026Z,52.95
2023-07-30T17:49:15.303Z,53.98
2023-07-30T17:50:48.833Z,54.62
2023-07-30T17:52:21.319Z,55.04
2023-07-30T17:53:54.222Z,55.02
2023-07-30T17:55:27.092Z,54.89
2023-07-30T17:56:59.569Z,56.16
2023-07-30T17:58:31.745Z,56.17
2023-07-30T18:00:05.289Z,56.21
2023-07-30T18:01:40.159Z,55.52
2023-07-30T18:03:13.594Z,55.60
2023-07-30T18:04:46.380Z,55.45
2023-07-30T18:06:18.777Z,55.23
2023-07-30T18:07:53.009Z,56.38
2023-07-30T18:09:25.652Z,56.63
2023-07-30T18:10:59.352Z,56.82
2023-07-30T18:12:31.727Z,56.78
2023-07-30T18:14:04.017Z,57.51
2023-07-30T18:15:36.446Z,57.95
2023-07-30T18:17:08.712Z,58.46
2023-07-30T18:18:40.961Z,58.53
2023-07-30T18:20:13.278Z,59.03
2023-07-30T18:21:45.577Z,59.35
2023-07-30T18:23:17.925Z,58.61
2023-07-30T18:24:50.154Z,59.89
2023-07-30T18:26:22.385Z,60.17
2023-07-30T18:27:54.700Z,60.03
2023-07-30T18:29:26.968Z,60.56
2023-07-30T18:30:59.155Z,61.10
2023-07-30T18:32:32.310Z,61.56
2023-07-30T18:34:04.497Z,61.56
2023-07-30T18:35:36.806Z,60.79
2023-07-30T18:37:09.215Z,61.07
2023-07-30T18:38:41.395Z,61.04
2023-07-30T18:40:13.876Z,61.45
2023-07-30T18:41:46.198Z,61.48
2023-07-30T18:43:20.372Z,61.77
2023-07-30T18:44:57.285Z,62.07
2023-07-30T18:46:29.747Z,62.29
2023-07-30T18:48:04.237Z,61.72
2023-07-30T18:49:36.807Z,62.57
2023-07-30T18:51:09.293Z,61.80
2023-07-30T18:52:41.612Z,61.79
2023-07-30T18:54:15.649Z,62.30
2023-07-30T18:55:48.389Z,62.45
2023-07-30T18:57:22.352Z,62.88
2023-07-30T18:58:54.778Z,62.84
2023-07-30T19:00:27.545Z,62.88
2023-07-30T19:01:59.995Z,62.92
2023-07-30T19:03:32.929Z,62.72
2023-07-30T19:05:05.526Z,62.52
2023-07-30T19:06:38.087Z,62.70
2023-07-30T19:08:10.615Z,62.38
2023-07-30T19:09:42.800Z,62.59
2023-07-30T19:11:15.069Z,62.82
2023-07-30T19:12:48.137Z,62.68
2023-07-30T19:14:20.400Z,63.49
2023-07-30T19:15:56.303Z,63.64
2023-07-30T19:17:29.117Z,64.05
2023-07-30T19:19:02.507Z,64.22
2023-07-30T19:20:35.168Z,64.27
2023-07-30T19:22:07.588Z,64.90
2023-07-30T19:23:41.177Z,65.32
2023-07-30T19:25:13.968Z,65.33
2023-07-30T19:26:46.663Z,66.16
2023-07-30T19:28:20.817Z,66.06
2023-07-30T19:29:53.416Z,66.22
2023-07-30T19:31:26.450Z,66.40
2023-07-30T19:32:59.647Z,66.38
2023-07-30T19:34:32.191Z,66.95
2023-07-30T19:36:05.096Z,67.28
2023-07-30T19:37:37.601Z,67.12
2023-07-30T19:39:09.934Z,67.05
2023-07-30T19:40:42.512Z,66.88
2023-07-30T19:42:14.741Z,67.39
2023-07-30T19:43:48.264Z,67.49
2023-07-30T19:45:20.824Z,67.01
2023-07-30T19:46:53.550Z,67.47
2023-07-30T19:48:26.617Z,67.18
2023-07-30T19:50:01.628Z,67.26
2023-07-30T19:51:35.061Z,67.40
2023-07-30T19:53:07.363Z,67.20
2023-07-30T19:54:39.731Z,67.74
2023-07-30T19:56:12.307Z,68.01
2023-07-30T19:57:44.570Z,68.04
2023-07-30T19:59:16.898Z,67.90
2023-07-30T20:00:49.104Z,68.29
2023-07-30T20:02:21.532Z,68.24
2023-07-30T20:03:53.889Z,67.96
2023-07-30T20:05:26.220Z,68.33
2023-07-30T20:06:59.026Z,68.17
2023-07-30T20:08:31.559Z,68.56
2023-07-30T20:10:04.638Z,68.24
2023-07-30T20:11:37.088Z,68.08
2023-07-30T20:13:09.368Z,67.08
2023-07-30T20:14:41.916Z,66.77